sensor_id;sensor_type;location;lat;lon;timestamp;pressure;altitude;pressure_sealevel;temperature;humidity
61357;BME280;47227;46.752;23.576;2023-04-10T00:38:01;96748.08;;;4.74;68.03
61357;BME280;47227;46.752;23.576;2023-04-10T00:40:29;96745.56;;;4.76;68.19
61357;BME280;47227;46.752;23.576;2023-04-10T00:42:58;96745.13;;;4.76;68.38
61357;BME280;47227;46.752;23.576;2023-04-10T00:45:26;96748.20;;;4.73;68.05
61357;BME280;47227;46.752;23.576;2023-04-10T00:47:54;96744.46;;;4.69;68.22
61357;BME280;47227;46.752;23.576;2023-04-10T00:50:23;96742.66;;;4.63;68.59
61357;BME280;47227;46.752;23.576;2023-04-10T00:52:52;96739.46;;;4.55;68.41
61357;BME280;47227;46.752;23.576;2023-04-10T00:55:20;96742.58;;;4.47;68.99
61357;BME280;47227;46.752;23.576;2023-04-10T00:57:48;96742.14;;;4.40;69.36
61357;BME280;47227;46.752;23.576;2023-04-10T01:00:16;96746.19;;;4.32;69.04
61357;BME280;47227;46.752;23.576;2023-04-10T01:02:46;96741.77;;;4.25;69.28
61357;BME280;47227;46.752;23.576;2023-04-10T01:05:14;96739.12;;;4.17;69.23
61357;BME280;47227;46.752;23.576;2023-04-10T01:08:02;96735.09;;;4.09;69.32
61357;BME280;47227;46.752;23.576;2023-04-10T01:10:45;96737.42;;;4.03;69.32
61357;BME280;47227;46.752;23.576;2023-04-10T01:13:22;96736.16;;;3.97;69.39
61357;BME280;47227;46.752;23.576;2023-04-10T01:16:08;96738.77;;;3.91;69.64
61357;BME280;47227;46.752;23.576;2023-04-10T01:18:44;96732.81;;;3.86;69.95
61357;BME280;47227;46.752;23.576;2023-04-10T01:21:13;96729.96;;;3.83;70.22
61357;BME280;47227;46.752;23.576;2023-04-10T01:24:06;96729.60;;;3.81;70.75
61357;BME280;47227;46.752;23.576;2023-04-10T01:27:08;96725.17;;;3.82;70.62
61357;BME280;47227;46.752;23.576;2023-04-10T01:29:43;96723.95;;;3.84;70.93
61357;BME280;47227;46.752;23.576;2023-04-10T01:32:16;96723.70;;;3.86;71.01
61357;BME280;47227;46.752;23.576;2023-04-10T01:34:49;96724.23;;;3.86;70.89
61357;BME280;47227;46.752;23.576;2023-04-10T01:37:22;96722.52;;;3.84;71.07
61357;BME280;47227;46.752;23.576;2023-04-10T01:39:58;96721.94;;;3.82;71.16
61357;BME280;47227;46.752;23.576;2023-04-10T01:42:30;96720.43;;;3.79;71.69
61357;BME280;47227;46.752;23.576;2023-04-10T03:17:51;96696.40;;;2.98;72.87
61357;BME280;47227;46.752;23.576;2023-04-10T03:20:19;96694.03;;;3.00;73.11
61357;BME280;47227;46.752;23.576;2023-04-10T03:22:48;96692.53;;;3.04;73.29
61357;BME280;47227;46.752;23.576;2023-04-10T03:25:17;96688.02;;;3.07;73.56
61357;BME280;47227;46.752;23.576;2023-04-10T03:27:45;96690.77;;;3.10;73.77
61357;BME280;47227;46.752;23.576;2023-04-10T03:30:13;96689.27;;;3.10;73.56
61357;BME280;47227;46.752;23.576;2023-04-10T03:32:42;96700.05;;;3.08;73.19
61357;BME280;47227;46.752;23.576;2023-04-10T03:35:10;96698.36;;;3.05;72.92
61357;BME280;47227;46.752;23.576;2023-04-10T03:37:39;96699.65;;;3.01;72.93
61357;BME280;47227;46.752;23.576;2023-04-10T03:40:09;96696.03;;;2.97;73.01
61357;BME280;47227;46.752;23.576;2023-04-10T03:42:38;96695.88;;;2.92;72.85
61357;BME280;47227;46.752;23.576;2023-04-10T03:45:07;96698.60;;;2.89;72.68
61357;BME280;47227;46.752;23.576;2023-04-10T03:47:35;96692.83;;;2.84;72.64
61357;BME280;47227;46.752;23.576;2023-04-10T03:50:04;96693.79;;;2.78;72.82
61357;BME280;47227;46.752;23.576;2023-04-10T03:52:38;96695.09;;;2.73;72.88
61357;BME280;47227;46.752;23.576;2023-04-10T03:55:10;96696.89;;;2.70;73.15
61357;BME280;47227;46.752;23.576;2023-04-10T03:57:39;96697.73;;;2.67;73.23
61357;BME280;47227;46.752;23.576;2023-04-10T04:00:08;96694.19;;;2.65;73.24
61357;BME280;47227;46.752;23.576;2023-04-10T04:02:56;96692.59;;;2.64;73.63
61357;BME280;47227;46.752;23.576;2023-04-10T04:05:43;96696.89;;;2.66;73.54
61357;BME280;47227;46.752;23.576;2023-04-10T04:08:23;96696.89;;;2.69;73.68
61357;BME280;47227;46.752;23.576;2023-04-10T04:11:00;96700.62;;;2.72;73.50
61357;BME280;47227;46.752;23.576;2023-04-10T04:13:35;96701.65;;;2.76;73.73
61357;BME280;47227;46.752;23.576;2023-04-10T04:16:08;96701.23;;;2.79;73.67
61357;BME280;47227;46.752;23.576;2023-04-10T04:18:45;96702.92;;;2.86;73.72
61357;BME280;47227;46.752;23.576;2023-04-10T04:21:21;96701.77;;;2.91;73.64
61357;BME280;47227;46.752;23.576;2023-04-10T04:24:05;96701.36;;;2.95;73.47
61357;BME280;47227;46.752;23.576;2023-04-10T04:26:53;96705.35;;;2.97;73.29
61357;BME280;47227;46.752;23.576;2023-04-10T04:29:35;96703.81;;;2.97;73.38
61357;BME280;47227;46.752;23.576;2023-04-10T04:32:13;96705.44;;;2.97;73.21
61357;BME280;47227;46.752;23.576;2023-04-10T04:34:55;96702.73;;;2.97;73.02
61357;BME280;47227;46.752;23.576;2023-04-10T04:37:35;96701.73;;;2.96;73.02
61357;BME280;47227;46.752;23.576;2023-04-10T04:40:17;96703.89;;;2.97;72.86
61357;BME280;47227;46.752;23.576;2023-04-10T04:42:58;96706.32;;;2.97;72.80
61357;BME280;47227;46.752;23.576;2023-04-10T04:45:46;96702.73;;;2.97;72.64
61357;BME280;47227;46.752;23.576;2023-04-10T04:48:30;96705.00;;;2.97;72.64
61357;BME280;47227;46.752;23.576;2023-04-10T04:51:13;96706.77;;;2.97;72.67
61357;BME280;47227;46.752;23.576;2023-04-10T04:53:48;96703.36;;;2.96;72.48
61357;BME280;47227;46.752;23.576;2023-04-10T04:56:26;96704.33;;;2.97;72.56
61357;BME280;47227;46.752;23.576;2023-04-10T04:59:07;96705.36;;;2.96;72.53
61357;BME280;47227;46.752;23.576;2023-04-10T05:01:54;96703.89;;;2.97;72.58
61357;BME280;47227;46.752;23.576;2023-04-10T05:04:37;96704.45;;;2.98;72.43
61357;BME280;47227;46.752;23.576;2023-04-10T05:07:10;96706.67;;;3.00;72.42
61357;BME280;47227;46.752;23.576;2023-04-10T05:09:57;96706.51;;;3.03;72.39
61357;BME280;47227;46.752;23.576;2023-04-10T05:12:45;96708.09;;;3.04;72.31
61357;BME280;47227;46.752;23.576;2023-04-10T05:15:21;96709.41;;;3.07;72.33
61357;BME280;47227;46.752;23.576;2023-04-10T05:18:04;96710.78;;;3.13;72.20
61357;BME280;47227;46.752;23.576;2023-04-10T05:20:41;96709.47;;;3.21;72.31
61357;BME280;47227;46.752;23.576;2023-04-10T05:23:29;96715.16;;;3.31;72.40
61357;BME280;47227;46.752;23.576;2023-04-10T05:26:15;96712.63;;;3.41;72.09
61357;BME280;47227;46.752;23.576;2023-04-10T05:28:51;96712.70;;;3.54;72.12
61357;BME280;47227;46.752;23.576;2023-04-10T05:31:39;96715.36;;;3.67;72.11
61357;BME280;47227;46.752;23.576;2023-04-10T05:34:14;96715.05;;;3.79;72.21
61357;BME280;47227;46.752;23.576;2023-04-10T05:37:02;96712.27;;;3.93;72.06
61357;BME280;47227;46.752;23.576;2023-04-10T05:39:49;96713.36;;;4.05;71.90
61357;BME280;47227;46.752;23.576;2023-04-10T05:42:34;96715.27;;;4.16;71.52
61357;BME280;47227;46.752;23.576;2023-04-10T05:45:20;96718.09;;;4.24;71.09
61357;BME280;47227;46.752;23.576;2023-04-10T05:48:00;96718.14;;;4.33;70.97
61357;BME280;47227;46.752;23.576;2023-04-10T06:49:59;96692.30;;;6.46;63.86
61357;BME280;47227;46.752;23.576;2023-04-10T06:53:09;96688.90;;;6.62;63.69
61357;BME280;47227;46.752;23.576;2023-04-10T06:56:36;96693.35;;;6.79;62.99
61357;BME280;47227;46.752;23.576;2023-04-10T07:06:31;96693.20;;;7.20;62.75
61357;BME280;47227;46.752;23.576;2023-04-10T07:09:47;96689.29;;;7.32;62.96
61357;BME280;47227;46.752;23.576;2023-04-10T07:29:12;96679.38;;;8.13;56.51
61357;BME280;47227;46.752;23.576;2023-04-10T07:31:41;96683.54;;;8.22;58.04
61357;BME280;47227;46.752;23.576;2023-04-10T07:34:10;96683.24;;;8.35;58.47
61357;BME280;47227;46.752;23.576;2023-04-10T07:36:38;96680.21;;;8.51;57.44
61357;BME280;47227;46.752;23.576;2023-04-10T07:39:06;96675.20;;;8.62;57.16
61357;BME280;47227;46.752;23.576;2023-04-10T07:41:34;96675.43;;;8.76;57.43
61357;BME280;47227;46.752;23.576;2023-04-10T07:44:02;96674.15;;;8.88;54.23
61357;BME280;47227;46.752;23.576;2023-04-10T07:46:30;96675.69;;;9.00;56.18
61357;BME280;47227;46.752;23.576;2023-04-10T07:48:59;96670.55;;;9.14;53.55
61357;BME280;47227;46.752;23.576;2023-04-10T07:51:27;96668.58;;;9.25;51.92
61357;BME280;47227;46.752;23.576;2023-04-10T07:53:56;96669.17;;;9.30;50.07
61357;BME280;47227;46.752;23.576;2023-04-10T07:56:24;96667.70;;;9.27;49.57
61357;BME280;47227;46.752;23.576;2023-04-10T07:58:52;96665.88;;;9.32;49.45
61357;BME280;47227;46.752;23.576;2023-04-10T08:01:21;96663.10;;;9.45;50.53
61357;BME280;47227;46.752;23.576;2023-04-10T08:03:49;96664.86;;;9.61;50.51
61357;BME280;47227;46.752;23.576;2023-04-10T08:10:08;96656.35;;;10.04;50.98
61357;BME280;47227;46.752;23.576;2023-04-10T08:20:57;96657.05;;;10.23;49.48
61357;BME280;47227;46.752;23.576;2023-04-10T08:37:19;96643.36;;;10.98;43.52
61357;BME280;47227;46.752;23.576;2023-04-10T08:40:49;96637.86;;;10.92;41.61
61357;BME280;47227;46.752;23.576;2023-04-10T08:46:48;96637.68;;;10.73;42.22
61357;BME280;47227;46.752;23.576;2023-04-10T08:50:28;96635.54;;;10.60;41.70
61357;BME280;47227;46.752;23.576;2023-04-10T08:54:04;96634.20;;;11.03;42.91
61357;BME280;47227;46.752;23.576;2023-04-10T08:57:14;96628.27;;;11.47;43.83
61357;BME280;47227;46.752;23.576;2023-04-10T09:17:58;96619.48;;;11.78;38.96
61357;BME280;47227;46.752;23.576;2023-04-10T09:20:29;96612.98;;;11.82;38.43
61357;BME280;47227;46.752;23.576;2023-04-10T09:23:21;96609.54;;;11.59;37.45
61357;BME280;47227;46.752;23.576;2023-04-10T09:29:14;96605.90;;;11.79;38.28
61357;BME280;47227;46.752;23.576;2023-04-10T09:39:13;96598.62;;;12.41;36.58
61357;BME280;47227;46.752;23.576;2023-04-10T09:42:03;96597.13;;;12.44;37.11
61357;BME280;47227;46.752;23.576;2023-04-10T09:57:52;96600.86;;;12.87;37.94
61357;BME280;47227;46.752;23.576;2023-04-10T10:00:59;96590.12;;;13.30;37.43
61357;BME280;47227;46.752;23.576;2023-04-10T10:23:57;96571.45;;;14.26;34.57
61357;BME280;47227;46.752;23.576;2023-04-10T10:27:05;96565.08;;;14.44;33.25
61357;BME280;47227;46.752;23.576;2023-04-10T10:30:22;96562.70;;;14.40;32.46
61357;BME280;47227;46.752;23.576;2023-04-10T10:33:59;96559.48;;;14.39;32.83
61357;BME280;47227;46.752;23.576;2023-04-10T10:55:41;96551.68;;;15.16;31.67
61357;BME280;47227;46.752;23.576;2023-04-10T12:00:04;96501.61;;;16.15;29.55
61357;BME280;47227;46.752;23.576;2023-04-10T12:06:01;96492.81;;;17.75;28.68
61357;BME280;47227;46.752;23.576;2023-04-10T12:19:13;96477.42;;;16.78;28.06
61357;BME280;47227;46.752;23.576;2023-04-10T12:21:58;96476.23;;;17.47;28.57
61357;BME280;47227;46.752;23.576;2023-04-10T12:24:44;96478.32;;;17.50;27.57
61357;BME280;47227;46.752;23.576;2023-04-10T12:27:17;96471.69;;;17.91;27.18
61357;BME280;47227;46.752;23.576;2023-04-10T12:29:49;96467.78;;;18.24;26.83
61357;BME280;47227;46.752;23.576;2023-04-10T12:32:21;96468.83;;;18.25;26.80
61357;BME280;47227;46.752;23.576;2023-04-10T12:34:55;96468.91;;;18.57;26.36
61357;BME280;47227;46.752;23.576;2023-04-10T12:37:51;96465.90;;;18.88;25.78
61357;BME280;47227;46.752;23.576;2023-04-10T12:40:23;96464.20;;;19.26;25.23
61357;BME280;47227;46.752;23.576;2023-04-10T12:43:02;96461.46;;;19.50;24.87
61357;BME280;47227;46.752;23.576;2023-04-10T12:45:50;96460.75;;;19.15;25.45
61357;BME280;47227;46.752;23.576;2023-04-10T12:48:22;96459.32;;;18.61;26.55
61357;BME280;47227;46.752;23.576;2023-04-10T12:50:53;96456.13;;;18.12;27.41
61357;BME280;47227;46.752;23.576;2023-04-10T13:00:37;96447.08;;;17.99;27.74
61357;BME280;47227;46.752;23.576;2023-04-10T13:04:19;96441.98;;;19.01;26.60
61357;BME280;47227;46.752;23.576;2023-04-10T13:06:57;96436.71;;;19.62;25.31
61357;BME280;47227;46.752;23.576;2023-04-10T13:09:26;96436.52;;;19.94;24.89
61357;BME280;47227;46.752;23.576;2023-04-10T13:11:54;96434.36;;;19.58;24.89
61357;BME280;47227;46.752;23.576;2023-04-10T13:14:24;96437.27;;;19.07;25.32
61357;BME280;47227;46.752;23.576;2023-04-10T13:16:54;96433.45;;;18.46;25.58
61357;BME280;47227;46.752;23.576;2023-04-10T13:19:27;96433.43;;;18.73;25.92
61357;BME280;47227;46.752;23.576;2023-04-10T13:21:55;96428.55;;;19.52;25.18
61357;BME280;47227;46.752;23.576;2023-04-10T13:24:26;96431.61;;;19.07;24.95
61357;BME280;47227;46.752;23.576;2023-04-10T13:27:16;96429.52;;;18.79;25.54
61357;BME280;47227;46.752;23.576;2023-04-10T13:29:44;96423.86;;;18.39;25.97
61357;BME280;47227;46.752;23.576;2023-04-10T13:32:12;96421.60;;;17.90;26.27
61357;BME280;47227;46.752;23.576;2023-04-10T13:34:40;96422.62;;;18.63;26.45
61357;BME280;47227;46.752;23.576;2023-04-10T13:37:09;96418.77;;;19.33;26.62
61357;BME280;47227;46.752;23.576;2023-04-10T13:39:39;96415.79;;;19.87;25.74
61357;BME280;47227;46.752;23.576;2023-04-10T13:45:40;96418.44;;;19.42;25.08
61357;BME280;47227;46.752;23.576;2023-04-10T13:48:08;96416.89;;;19.09;25.14
61357;BME280;47227;46.752;23.576;2023-04-10T13:50:36;96412.48;;;19.02;25.13
61357;BME280;47227;46.752;23.576;2023-04-10T13:53:04;96412.81;;;18.68;25.25
61357;BME280;47227;46.752;23.576;2023-04-10T13:55:34;96412.31;;;18.86;25.50
61357;BME280;47227;46.752;23.576;2023-04-10T13:58:04;96407.67;;;19.61;24.41
61357;BME280;47227;46.752;23.576;2023-04-10T14:00:33;96403.36;;;20.47;23.48
61357;BME280;47227;46.752;23.576;2023-04-10T14:03:01;96401.13;;;20.32;23.50
61357;BME280;47227;46.752;23.576;2023-04-10T14:05:30;96400.49;;;20.60;23.57
61357;BME280;47227;46.752;23.576;2023-04-10T14:07:58;96399.24;;;21.02;23.12
61357;BME280;47227;46.752;23.576;2023-04-10T14:10:25;96397.00;;;21.38;23.31
61357;BME280;47227;46.752;23.576;2023-04-10T14:12:53;96398.33;;;21.97;22.98
61357;BME280;47227;46.752;23.576;2023-04-10T14:15:21;96393.05;;;22.45;22.36
61357;BME280;47227;46.752;23.576;2023-04-10T14:17:50;96390.52;;;21.93;21.93
61357;BME280;47227;46.752;23.576;2023-04-10T14:20:18;96389.15;;;20.41;23.28
61357;BME280;47227;46.752;23.576;2023-04-10T14:22:49;96390.13;;;19.38;24.49
61357;BME280;47227;46.752;23.576;2023-04-10T14:25:17;96387.62;;;19.45;24.91
61357;BME280;47227;46.752;23.576;2023-04-10T14:27:45;96387.61;;;19.40;25.23
61357;BME280;47227;46.752;23.576;2023-04-10T14:30:13;96383.11;;;19.74;24.69
61357;BME280;47227;46.752;23.576;2023-04-10T14:32:41;96381.98;;;20.51;23.97
61357;BME280;47227;46.752;23.576;2023-04-10T14:35:09;96380.44;;;21.10;22.94
61357;BME280;47227;46.752;23.576;2023-04-10T14:37:37;96375.13;;;21.35;22.36
61357;BME280;47227;46.752;23.576;2023-04-10T14:40:06;96375.63;;;21.62;22.03
61357;BME280;47227;46.752;23.576;2023-04-10T14:42:34;96374.75;;;22.06;21.93
61357;BME280;47227;46.752;23.576;2023-04-10T14:45:03;96374.30;;;22.34;21.56
61357;BME280;47227;46.752;23.576;2023-04-10T14:47:32;96376.82;;;22.82;21.16
61357;BME280;47227;46.752;23.576;2023-04-10T14:50:00;96375.14;;;22.72;21.01
61357;BME280;47227;46.752;23.576;2023-04-10T14:52:28;96371.78;;;21.91;21.73
61357;BME280;47227;46.752;23.576;2023-04-10T14:54:56;96368.46;;;20.94;22.82
61357;BME280;47227;46.752;23.576;2023-04-10T14:57:24;96367.25;;;20.90;23.34
61357;BME280;47227;46.752;23.576;2023-04-10T14:59:52;96362.89;;;20.82;23.50
61357;BME280;47227;46.752;23.576;2023-04-10T15:02:20;96364.52;;;20.20;24.35
61357;BME280;47227;46.752;23.576;2023-04-10T15:04:49;96362.62;;;19.77;24.99
61357;BME280;47227;46.752;23.576;2023-04-10T15:07:19;96368.97;;;18.84;26.40
61357;BME280;47227;46.752;23.576;2023-04-10T15:09:55;96367.12;;;18.35;26.71
61357;BME280;47227;46.752;23.576;2023-04-10T15:12:23;96362.41;;;18.20;26.85
61357;BME280;47227;46.752;23.576;2023-04-10T15:14:51;96359.81;;;18.14;27.19
61357;BME280;47227;46.752;23.576;2023-04-10T15:17:20;96357.42;;;18.31;26.67
61357;BME280;47227;46.752;23.576;2023-04-10T15:19:49;96355.61;;;17.82;27.55
61357;BME280;47227;46.752;23.576;2023-04-10T15:22:20;96354.54;;;17.25;28.27
61357;BME280;47227;46.752;23.576;2023-04-10T15:24:51;96350.27;;;16.88;28.69
61357;BME280;47227;46.752;23.576;2023-04-10T15:27:19;96347.66;;;17.34;28.41
61357;BME280;47227;46.752;23.576;2023-04-10T15:29:48;96346.99;;;17.97;27.80
61357;BME280;47227;46.752;23.576;2023-04-10T15:32:17;96346.81;;;18.47;27.00
61357;BME280;47227;46.752;23.576;2023-04-10T15:34:45;96348.33;;;18.84;26.63
61357;BME280;47227;46.752;23.576;2023-04-10T15:37:13;96347.16;;;19.08;26.66
61357;BME280;47227;46.752;23.576;2023-04-10T15:39:40;96345.98;;;19.13;26.64
61357;BME280;47227;46.752;23.576;2023-04-10T15:42:09;96347.76;;;18.83;26.95
61357;BME280;47227;46.752;23.576;2023-04-10T15:44:37;96344.30;;;18.72;27.21
61357;BME280;47227;46.752;23.576;2023-04-10T15:47:04;96340.52;;;18.64;27.53
61357;BME280;47227;46.752;23.576;2023-04-10T15:49:33;96339.83;;;18.45;27.91
61357;BME280;47227;46.752;23.576;2023-04-10T15:52:06;96342.86;;;18.45;28.35
61357;BME280;47227;46.752;23.576;2023-04-10T15:54:34;96338.64;;;18.35;28.26
61357;BME280;47227;46.752;23.576;2023-04-10T15:57:02;96340.11;;;18.11;28.56
61357;BME280;47227;46.752;23.576;2023-04-10T15:59:31;96337.86;;;17.99;28.73
61357;BME280;47227;46.752;23.576;2023-04-10T16:01:59;96334.33;;;17.06;29.98
61357;BME280;47227;46.752;23.576;2023-04-10T16:04:29;96332.65;;;16.45;31.07
61357;BME280;47227;46.752;23.576;2023-04-10T16:06:57;96335.85;;;16.09;31.89
61357;BME280;47227;46.752;23.576;2023-04-10T16:09:25;96336.27;;;15.62;32.93
61357;BME280;47227;46.752;23.576;2023-04-10T16:11:55;96333.49;;;15.38;33.85
61357;BME280;47227;46.752;23.576;2023-04-10T16:14:24;96338.29;;;14.93;34.28
61357;BME280;47227;46.752;23.576;2023-04-10T16:16:52;96337.44;;;14.61;35.15
61357;BME280;47227;46.752;23.576;2023-04-10T16:19:20;96338.70;;;14.28;35.91
61357;BME280;47227;46.752;23.576;2023-04-10T16:21:47;96340.02;;;14.07;36.43
61357;BME280;47227;46.752;23.576;2023-04-10T16:24:16;96341.95;;;13.86;37.01
61357;BME280;47227;46.752;23.576;2023-04-10T16:26:44;96339.04;;;13.68;37.56
61357;BME280;47227;46.752;23.576;2023-04-10T16:29:12;96338.60;;;13.63;37.95
61357;BME280;47227;46.752;23.576;2023-04-10T16:31:40;96338.02;;;13.58;37.80
61357;BME280;47227;46.752;23.576;2023-04-10T16:34:08;96340.19;;;13.37;38.16
61357;BME280;47227;46.752;23.576;2023-04-10T16:36:36;96339.67;;;13.42;38.30
61357;BME280;47227;46.752;23.576;2023-04-10T16:39:04;96337.21;;;13.20;38.53
61357;BME280;47227;46.752;23.576;2023-04-10T16:41:33;96339.06;;;12.98;39.12
61357;BME280;47227;46.752;23.576;2023-04-10T16:44:01;96336.35;;;12.82;39.40
61357;BME280;47227;46.752;23.576;2023-04-10T16:46:29;96339.50;;;12.67;39.88
61357;BME280;47227;46.752;23.576;2023-04-10T16:48:59;96335.80;;;12.48;40.67
61357;BME280;47227;46.752;23.576;2023-04-10T16:51:28;96333.16;;;12.31;41.49
61357;BME280;47227;46.752;23.576;2023-04-10T16:53:56;96339.92;;;12.17;42.36
61357;BME280;47227;46.752;23.576;2023-04-10T16:56:24;96343.23;;;11.91;43.56
61357;BME280;47227;46.752;23.576;2023-04-10T16:58:52;96345.50;;;11.77;43.90
61357;BME280;47227;46.752;23.576;2023-04-10T17:01:22;96344.52;;;11.71;43.40
61357;BME280;47227;46.752;23.576;2023-04-10T17:03:53;96347.99;;;11.59;44.10
61357;BME280;47227;46.752;23.576;2023-04-10T17:06:22;96346.92;;;11.44;44.67
61357;BME280;47227;46.752;23.576;2023-04-10T17:08:50;96349.56;;;11.26;45.38
61357;BME280;47227;46.752;23.576;2023-04-10T17:11:18;96352.92;;;11.13;46.11
61357;BME280;47227;46.752;23.576;2023-04-10T17:13:45;96354.28;;;10.97;47.11
61357;BME280;47227;46.752;23.576;2023-04-10T17:16:13;96355.19;;;10.83;47.01
61357;BME280;47227;46.752;23.576;2023-04-10T17:18:43;96356.33;;;10.77;46.56
61357;BME280;47227;46.752;23.576;2023-04-10T17:21:11;96359.06;;;10.59;48.34
61357;BME280;47227;46.752;23.576;2023-04-10T17:23:40;96362.98;;;10.53;47.84
61357;BME280;47227;46.752;23.576;2023-04-10T17:26:12;96365.06;;;10.43;48.68
61357;BME280;47227;46.752;23.576;2023-04-10T17:28:41;96363.14;;;10.32;48.29
61357;BME280;47227;46.752;23.576;2023-04-10T17:31:12;96364.31;;;10.23;49.04
61357;BME280;47227;46.752;23.576;2023-04-10T17:33:41;96363.82;;;10.10;50.06
61357;BME280;47227;46.752;23.576;2023-04-10T17:36:12;96366.34;;;9.99;50.31
61357;BME280;47227;46.752;23.576;2023-04-10T17:38:41;96364.38;;;9.90;50.47
61357;BME280;47227;46.752;23.576;2023-04-10T17:41:09;96365.95;;;9.83;50.99
61357;BME280;47227;46.752;23.576;2023-04-10T17:43:40;96367.00;;;9.76;51.08
61357;BME280;47227;46.752;23.576;2023-04-10T17:46:13;96367.88;;;9.68;52.38
61357;BME280;47227;46.752;23.576;2023-04-10T17:48:42;96369.13;;;9.57;52.47
61357;BME280;47227;46.752;23.576;2023-04-10T17:51:12;96370.92;;;9.52;52.30
61357;BME280;47227;46.752;23.576;2023-04-10T17:53:40;96376.58;;;9.45;52.73
61357;BME280;47227;46.752;23.576;2023-04-10T17:56:16;96378.59;;;9.41;51.58
61357;BME280;47227;46.752;23.576;2023-04-10T17:58:45;96382.83;;;9.33;52.20
61357;BME280;47227;46.752;23.576;2023-04-10T18:01:21;96383.27;;;9.28;51.78
61357;BME280;47227;46.752;23.576;2023-04-10T18:03:49;96384.67;;;9.23;51.11
61357;BME280;47227;46.752;23.576;2023-04-10T18:06:18;96385.70;;;9.15;51.27
61357;BME280;47227;46.752;23.576;2023-04-10T18:08:46;96385.94;;;9.11;51.18
61357;BME280;47227;46.752;23.576;2023-04-10T18:11:14;96386.42;;;9.05;50.94
61357;BME280;47227;46.752;23.576;2023-04-10T18:13:42;96389.21;;;9.01;51.58
61357;BME280;47227;46.752;23.576;2023-04-10T18:16:10;96391.40;;;8.95;51.69
61357;BME280;47227;46.752;23.576;2023-04-10T18:18:38;96389.39;;;8.91;51.69
61357;BME280;47227;46.752;23.576;2023-04-10T18:21:10;96396.30;;;8.88;51.66
61357;BME280;47227;46.752;23.576;2023-04-10T18:23:42;96395.51;;;8.85;52.48
61357;BME280;47227;46.752;23.576;2023-04-10T18:26:11;96393.84;;;8.85;52.13
61357;BME280;47227;46.752;23.576;2023-04-10T18:28:39;96399.02;;;8.85;52.21
61357;BME280;47227;46.752;23.576;2023-04-10T18:31:09;96406.23;;;8.87;52.40
61357;BME280;47227;46.752;23.576;2023-04-10T18:33:41;96404.11;;;8.89;52.62
61357;BME280;47227;46.752;23.576;2023-04-10T18:36:10;96410.09;;;8.90;52.23
61357;BME280;47227;46.752;23.576;2023-04-10T18:38:40;96411.70;;;8.90;52.54
61357;BME280;47227;46.752;23.576;2023-04-10T18:41:10;96412.05;;;8.88;52.52
61357;BME280;47227;46.752;23.576;2023-04-10T18:43:38;96412.48;;;8.86;53.20
61357;BME280;47227;46.752;23.576;2023-04-10T18:46:06;96414.49;;;8.85;53.45
61357;BME280;47227;46.752;23.576;2023-04-10T18:48:40;96412.52;;;8.83;53.63
61357;BME280;47227;46.752;23.576;2023-04-10T18:51:09;96415.58;;;8.81;53.45
61357;BME280;47227;46.752;23.576;2023-04-10T18:53:38;96411.10;;;8.79;53.43
61357;BME280;47227;46.752;23.576;2023-04-10T18:56:07;96410.96;;;8.77;54.73
61357;BME280;47227;46.752;23.576;2023-04-10T18:58:35;96413.34;;;8.74;54.54
61357;BME280;47227;46.752;23.576;2023-04-10T19:01:03;96413.44;;;8.71;54.59
61357;BME280;47227;46.752;23.576;2023-04-10T19:03:31;96418.14;;;8.68;54.99
61357;BME280;47227;46.752;23.576;2023-04-10T19:06:00;96413.00;;;8.65;54.54
61357;BME280;47227;46.752;23.576;2023-04-10T19:08:27;96416.45;;;8.61;55.22
61357;BME280;47227;46.752;23.576;2023-04-10T19:10:55;96411.52;;;8.58;55.24
61357;BME280;47227;46.752;23.576;2023-04-10T19:13:26;96412.30;;;8.55;55.58
61357;BME280;47227;46.752;23.576;2023-04-10T19:15:54;96418.41;;;8.52;55.49
61357;BME280;47227;46.752;23.576;2023-04-10T19:18:22;96419.25;;;8.49;55.28
61357;BME280;47227;46.752;23.576;2023-04-10T19:20:50;96418.23;;;8.45;55.47
61357;BME280;47227;46.752;23.576;2023-04-10T19:23:20;96421.97;;;8.40;55.72
61357;BME280;47227;46.752;23.576;2023-04-10T19:25:52;96423.27;;;8.37;56.05
61357;BME280;47227;46.752;23.576;2023-04-10T19:28:22;96422.87;;;8.32;55.83
61357;BME280;47227;46.752;23.576;2023-04-10T19:30:50;96426.30;;;8.29;56.16
61357;BME280;47227;46.752;23.576;2023-04-10T19:33:18;96424.91;;;8.26;56.23
61357;BME280;47227;46.752;23.576;2023-04-10T19:35:47;96425.89;;;8.22;57.12
61357;BME280;47227;46.752;23.576;2023-04-10T19:38:15;96422.39;;;8.18;57.16
61357;BME280;47227;46.752;23.576;2023-04-10T19:40:43;96421.54;;;8.14;57.25
61357;BME280;47227;46.752;23.576;2023-04-10T19:43:11;96420.73;;;8.09;57.59
61357;BME280;47227;46.752;23.576;2023-04-10T19:45:39;96422.65;;;8.03;57.76
61357;BME280;47227;46.752;23.576;2023-04-10T19:48:07;96419.83;;;7.98;58.11
61357;BME280;47227;46.752;23.576;2023-04-10T19:50:36;96418.98;;;7.94;58.93
61357;BME280;47227;46.752;23.576;2023-04-10T19:53:07;96422.69;;;7.89;59.47
61357;BME280;47227;46.752;23.576;2023-04-10T19:55:37;96424.45;;;7.84;59.25
61357;BME280;47227;46.752;23.576;2023-04-10T19:58:07;96421.13;;;7.78;59.49
61357;BME280;47227;46.752;23.576;2023-04-10T20:00:47;96417.13;;;7.72;59.55
61357;BME280;47227;46.752;23.576;2023-04-10T20:03:16;96414.69;;;7.66;59.78
61357;BME280;47227;46.752;23.576;2023-04-10T20:05:44;96418.42;;;7.61;59.95
61357;BME280;47227;46.752;23.576;2023-04-10T20:08:12;96415.80;;;7.55;60.02
61357;BME280;47227;46.752;23.576;2023-04-10T20:10:40;96413.41;;;7.50;60.90
61357;BME280;47227;46.752;23.576;2023-04-10T20:16:33;96406.16;;;7.40;61.01
61357;BME280;47227;46.752;23.576;2023-04-10T20:23:49;96402.32;;;7.34;62.74
61357;BME280;47227;46.752;23.576;2023-04-10T20:27:19;96400.91;;;7.34;62.33
61357;BME280;47227;46.752;23.576;2023-04-10T20:30:44;96399.19;;;7.35;62.52